BGBW

Narsarsuaq Airport

Narsarsuaq, Greenland
METAR BGBW 220550Z AUTO 36003KT 9999NDV SCT140/// BKN170/// 03/M01 Q1003
Observed Flight Rules
Apr-22 @ 05:50 UTC (an hour ago)
Wind Clouds
360° at 3 knots
  • Scattered at 14,000' AGL
  • Broken at 17,000' AGL
Temperatures Readings
Current 3°C / 37°F
Dewpoint -1°C / 30°F
Humidity 75%
Altimeter 29.62" Hg
Pressure 1003 hPa
Elevation 26
METAR BGBW 220550Z AUTO 36003KT 9999NDV SCT140/// BKN170/// 03/M01 Q1003
Observed Flight Rules
Apr-22 @ 05:50 UTC
(an hour ago)
Wind
360° at 3 knots
Clouds
  • Scattered at 14,000' AGL
  • Broken at 17,000' AGL
Temperature Dewpoint
3°C / 37°F -1°C / 30°F
Humidity Altimeter Pressure
75% 29.62" Hg 1003 hPa